createdAt,value
2022-10-06T00:01:10.631Z,49.78
2022-10-06T00:03:38.290Z,49.72
2022-10-06T00:06:05.855Z,48.58
2022-10-06T00:08:34.715Z,45.47
2022-10-06T00:11:01.623Z,45.65
2022-10-06T00:13:28.629Z,50.00
2022-10-06T00:15:55.512Z,46.17
2022-10-06T00:18:22.239Z,49.15
2022-10-06T00:20:59.902Z,43.85
2022-10-06T00:23:27.509Z,47.00
2022-10-06T00:25:54.486Z,48.30
2022-10-06T00:28:21.628Z,45.45
2022-10-06T00:30:48.270Z,43.10
2022-10-06T00:33:17.328Z,43.25
2022-10-06T00:35:44.343Z,49.63
2022-10-06T00:38:13.026Z,45.05
2022-10-06T00:40:48.439Z,46.28
2022-10-06T00:43:36.730Z,46.58
2022-10-06T00:46:03.249Z,45.17
2022-10-06T00:48:31.222Z,44.65
2022-10-06T00:50:59.209Z,44.05
2022-10-06T00:53:30.330Z,46.28
2022-10-06T00:58:24.096Z,42.30
2022-10-06T01:00:55.599Z,45.08
2022-10-06T01:03:29.729Z,44.65
2022-10-06T01:05:57.980Z,43.10
2022-10-06T01:08:25.948Z,43.80
2022-10-06T01:10:52.660Z,40.47
2022-10-06T01:13:19.387Z,41.70
2022-10-06T01:16:06.216Z,40.13
2022-10-06T01:18:33.852Z,43.88
2022-10-06T01:21:29.334Z,45.65
2022-10-06T01:23:57.140Z,42.72
2022-10-06T01:26:24.897Z,42.47
2022-10-06T01:28:51.661Z,42.47
2022-10-06T01:31:18.479Z,42.85
2022-10-06T01:33:44.957Z,43.45
2022-10-06T01:36:11.352Z,42.50
2022-10-06T01:38:37.856Z,41.42
2022-10-06T01:41:04.708Z,44.25
2022-10-06T01:43:31.129Z,41.78
2022-10-06T01:45:58.380Z,40.95
2022-10-06T01:48:26.694Z,40.17
2022-10-06T01:50:54.641Z,39.78
2022-10-06T01:53:21.520Z,40.15
2022-10-06T01:55:48.497Z,42.10
2022-10-06T01:58:15.077Z,41.25
2022-10-06T02:00:41.552Z,38.83
2022-10-06T02:03:08.453Z,39.90
2022-10-06T02:05:35.139Z,42.75
2022-10-06T02:08:02.712Z,41.83
2022-10-06T02:10:29.243Z,41.28
2022-10-06T02:12:55.717Z,41.45
2022-10-06T02:15:22.252Z,39.38
2022-10-06T02:17:48.815Z,41.35
2022-10-06T02:20:15.642Z,40.55
2022-10-06T02:22:43.651Z,39.38
2022-10-06T02:25:11.839Z,40.55
2022-10-06T02:27:39.584Z,42.58
2022-10-06T02:30:07.452Z,36.10
2022-10-06T02:32:36.817Z,38.40
2022-10-06T02:35:04.097Z,36.05
2022-10-06T02:37:30.952Z,34.20
2022-10-06T02:39:57.518Z,38.45
2022-10-06T02:42:24.090Z,42.22
2022-10-06T02:44:52.173Z,41.92
2022-10-06T02:47:19.454Z,41.35
2022-10-06T02:49:46.401Z,40.50
2022-10-06T02:52:13.023Z,41.08
2022-10-06T02:54:39.457Z,41.80
2022-10-06T02:57:05.913Z,37.20
2022-10-06T02:59:33.905Z,39.83
2022-10-06T03:02:00.455Z,41.33
2022-10-06T03:04:27.442Z,38.22
2022-10-06T03:06:53.978Z,41.15
2022-10-06T03:09:20.432Z,38.08
2022-10-06T03:11:47.156Z,38.05
2022-10-06T03:14:16.582Z,33.72
2022-10-06T03:16:45.746Z,33.17
2022-10-06T03:19:12.294Z,31.90
2022-10-06T03:21:43.781Z,30.98
2022-10-06T03:24:10.946Z,32.40
2022-10-06T03:26:40.781Z,35.75
2022-10-06T03:29:11.331Z,31.77
2022-10-06T03:31:39.162Z,31.60
2022-10-06T03:34:06.024Z,27.60
2022-10-06T03:36:33.902Z,25.10
2022-10-06T03:39:01.631Z,26.98
2022-10-06T03:41:30.401Z,25.00
2022-10-06T03:43:58.625Z,24.10
2022-10-06T03:46:30.071Z,28.30
2022-10-06T03:49:01.258Z,28.60
2022-10-06T03:53:58.961Z,25.90
2022-10-06T03:56:29.559Z,29.17
2022-10-06T03:58:59.652Z,33.88
2022-10-06T04:01:32.126Z,34.50
2022-10-06T04:04:00.445Z,38.92
2022-10-06T04:06:28.823Z,33.92
2022-10-06T04:08:55.884Z,32.15
2022-10-06T04:11:33.490Z,37.65
2022-10-06T04:14:02.752Z,36.53
2022-10-06T04:16:34.268Z,37.45
2022-10-06T04:19:03.716Z,38.15
2022-10-06T04:21:32.227Z,40.35
2022-10-06T04:24:00.327Z,35.30
2022-10-06T04:26:30.654Z,39.90
2022-10-06T04:28:57.478Z,34.57
2022-10-06T04:31:26.531Z,32.30
2022-10-06T04:33:55.285Z,33.42
2022-10-06T04:36:27.997Z,35.15
2022-10-06T04:38:58.175Z,35.40
2022-10-06T04:41:31.821Z,33.47
2022-10-06T04:43:58.736Z,35.88
2022-10-06T04:49:19.674Z,35.97
2022-10-06T04:51:48.885Z,31.67
2022-10-06T04:54:15.527Z,31.33
2022-10-06T04:56:41.909Z,28.42
2022-10-06T04:59:08.346Z,28.75
2022-10-06T05:01:36.724Z,28.13
2022-10-06T05:04:05.886Z,28.25
2022-10-06T05:06:41.575Z,28.42
2022-10-06T05:09:13.677Z,29.40
2022-10-06T05:11:40.482Z,29.50
2022-10-06T05:14:07.527Z,31.58
2022-10-06T05:16:36.869Z,31.67
2022-10-06T05:19:03.604Z,33.70
2022-10-06T05:21:32.163Z,32.97
2022-10-06T05:23:59.046Z,34.22
2022-10-06T05:26:28.539Z,36.00
2022-10-06T05:28:55.202Z,31.35
2022-10-06T05:31:27.783Z,32.70
2022-10-06T05:33:55.326Z,33.65
2022-10-06T05:36:27.933Z,30.35
2022-10-06T05:38:59.665Z,29.42
2022-10-06T05:41:37.644Z,29.80
2022-10-06T05:44:04.633Z,29.20
2022-10-06T05:46:36.182Z,30.27
2022-10-06T05:49:17.049Z,32.65
2022-10-06T05:51:43.740Z,27.42
2022-10-06T05:54:10.292Z,28.55
2022-10-06T05:56:38.138Z,28.30
2022-10-06T05:59:05.846Z,27.02
2022-10-06T06:01:33.172Z,29.15
2022-10-06T06:04:03.011Z,26.67
2022-10-06T06:06:48.795Z,31.08
2022-10-06T06:09:17.462Z,29.45
2022-10-06T06:11:46.850Z,31.23
2022-10-06T06:14:44.081Z,38.42
2022-10-06T06:17:11.473Z,39.15
2022-10-06T06:19:37.875Z,35.70
2022-10-06T06:22:04.268Z,40.97
2022-10-06T06:24:30.717Z,34.70
2022-10-06T06:26:57.209Z,37.63
2022-10-06T06:29:24.054Z,35.65
2022-10-06T06:31:51.045Z,34.83
2022-10-06T06:34:17.580Z,34.17
2022-10-06T06:36:46.944Z,30.35
2022-10-06T06:39:14.525Z,34.80
2022-10-06T06:41:46.023Z,32.67
2022-10-06T06:44:13.835Z,31.15
2022-10-06T06:46:43.253Z,31.58
2022-10-06T06:49:11.908Z,34.15
2022-10-06T06:51:40.835Z,32.55
2022-10-06T06:54:09.091Z,32.92
2022-10-06T06:56:36.140Z,32.95
2022-10-06T06:59:08.813Z,33.28
2022-10-06T07:01:35.315Z,32.70
2022-10-06T07:04:01.930Z,33.55
2022-10-06T07:06:30.435Z,39.33
2022-10-06T07:08:58.770Z,31.98
2022-10-06T07:11:32.334Z,33.75
2022-10-06T07:14:03.739Z,35.05
2022-10-06T07:16:50.031Z,41.10
2022-10-06T07:19:36.760Z,42.25
2022-10-06T07:22:34.825Z,40.08
2022-10-06T07:25:11.500Z,45.58
2022-10-06T07:27:42.383Z,49.00
2022-10-06T07:30:11.760Z,44.40
2022-10-06T07:32:38.298Z,47.75
2022-10-06T07:35:06.488Z,51.53
2022-10-06T07:37:35.110Z,49.17
2022-10-06T07:40:01.968Z,49.22
2022-10-06T07:42:28.503Z,48.45
2022-10-06T07:45:13.393Z,50.35
2022-10-06T07:47:39.924Z,51.58
2022-10-06T07:50:08.336Z,51.90
2022-10-06T07:52:39.082Z,49.97
2022-10-06T07:55:06.428Z,52.88
2022-10-06T07:57:35.432Z,52.55
2022-10-06T08:00:05.612Z,50.47
2022-10-06T08:02:35.521Z,55.40
2022-10-06T08:05:03.494Z,52.15
2022-10-06T08:07:29.889Z,52.55
2022-10-06T08:09:56.280Z,50.72
2022-10-06T08:12:37.359Z,55.67
2022-10-06T08:17:36.723Z,58.37
2022-10-06T08:20:08.914Z,55.72
2022-10-06T08:22:36.606Z,56.20
2022-10-06T08:25:07.288Z,50.15
2022-10-06T08:27:35.260Z,52.88
2022-10-06T08:30:02.563Z,51.40
2022-10-06T08:32:29.978Z,49.20
2022-10-06T08:34:57.016Z,49.08
2022-10-06T08:37:24.499Z,49.90
2022-10-06T08:39:51.492Z,46.85
2022-10-06T08:42:26.042Z,44.40
2022-10-06T08:45:15.289Z,46.97
2022-10-06T08:47:52.235Z,46.13
2022-10-06T08:50:21.269Z,43.28
2022-10-06T08:53:17.602Z,46.03
2022-10-06T08:55:57.320Z,46.03
2022-10-06T08:58:28.875Z,37.65
2022-10-06T09:01:00.885Z,35.30
2022-10-06T09:03:29.653Z,42.70
2022-10-06T09:06:07.416Z,45.67
2022-10-06T09:08:55.344Z,45.40
2022-10-06T09:11:43.395Z,43.17
2022-10-06T09:14:24.406Z,41.53
2022-10-06T09:16:58.136Z,42.95
2022-10-06T09:19:37.454Z,43.33
2022-10-06T09:24:57.216Z,40.80
2022-10-06T09:27:30.381Z,38.20
2022-10-06T09:29:57.110Z,43.03
2022-10-06T09:32:26.655Z,41.88
2022-10-06T09:34:55.944Z,40.92
2022-10-06T09:37:23.209Z,41.47
2022-10-06T09:39:51.676Z,39.90
2022-10-06T09:42:30.037Z,40.97
2022-10-06T09:45:29.023Z,41.67
2022-10-06T09:48:11.770Z,41.00
2022-10-06T09:50:38.267Z,40.15
2022-10-06T09:53:16.264Z,38.92
2022-10-06T09:55:46.599Z,39.33
2022-10-06T09:58:21.282Z,41.40
2022-10-06T10:00:53.664Z,39.15
2022-10-06T10:03:21.630Z,41.00
2022-10-06T10:05:54.826Z,41.42
2022-10-06T10:08:24.483Z,39.47
2022-10-06T10:11:30.258Z,38.85
2022-10-06T10:13:57.847Z,37.95
2022-10-06T10:16:26.414Z,39.53
2022-10-06T10:18:53.505Z,39.25
2022-10-06T10:21:25.800Z,39.55
2022-10-06T10:23:58.484Z,43.05
2022-10-06T10:26:32.469Z,39.17
2022-10-06T10:29:04.955Z,37.58
2022-10-06T10:31:50.178Z,38.22
2022-10-06T10:34:34.589Z,34.13
2022-10-06T10:37:05.738Z,33.30
2022-10-06T10:39:49.567Z,38.13
2022-10-06T10:42:31.075Z,37.13
2022-10-06T10:45:02.714Z,35.47
2022-10-06T10:47:37.806Z,38.92
2022-10-06T10:50:24.548Z,35.88
2022-10-06T10:52:54.628Z,35.03
2022-10-06T10:55:31.490Z,35.63
2022-10-06T10:58:05.886Z,35.80
2022-10-06T11:00:37.492Z,35.65
2022-10-06T11:03:04.065Z,34.70
2022-10-06T11:05:55.097Z,36.28
2022-10-06T11:11:41.409Z,31.90
2022-10-06T11:14:19.261Z,35.20
2022-10-06T11:17:03.678Z,35.08
2022-10-06T11:19:54.981Z,35.00
2022-10-06T11:22:31.980Z,33.38
2022-10-06T11:25:20.092Z,33.95
2022-10-06T11:28:14.591Z,35.47
2022-10-06T11:30:58.565Z,32.70
2022-10-06T11:33:52.695Z,34.65
2022-10-06T11:36:42.101Z,33.00
2022-10-06T11:39:20.841Z,31.95
2022-10-06T11:42:06.107Z,35.80
2022-10-06T11:44:46.417Z,34.85
2022-10-06T11:47:35.543Z,35.00
2022-10-06T11:50:12.404Z,35.00
2022-10-06T11:52:46.386Z,36.88
2022-10-06T11:55:16.529Z,33.88
2022-10-06T11:58:29.762Z,34.83
2022-10-06T12:00:56.288Z,37.00
2022-10-06T12:03:28.471Z,34.42
2022-10-06T12:05:56.517Z,33.53
2022-10-06T12:08:40.155Z,33.53
2022-10-06T12:11:38.200Z,36.17
2022-10-06T12:17:22.503Z,37.85
2022-10-06T12:20:16.765Z,38.55
2022-10-06T12:22:55.803Z,39.13
2022-10-06T12:25:32.035Z,33.20
2022-10-06T12:28:19.695Z,33.88
2022-10-06T12:31:17.965Z,33.15
2022-10-06T12:33:45.251Z,36.30
2022-10-06T12:36:19.161Z,36.15
2022-10-06T12:39:01.724Z,36.03
2022-10-06T12:41:59.214Z,31.33
2022-10-06T12:44:37.940Z,31.10
2022-10-06T12:47:12.939Z,33.30
2022-10-06T12:50:03.019Z,31.90
2022-10-06T12:52:35.492Z,35.60
2022-10-06T12:55:35.869Z,33.58
2022-10-06T12:58:02.463Z,34.90
2022-10-06T13:00:31.887Z,35.13
2022-10-06T13:03:01.013Z,34.35
2022-10-06T13:05:27.885Z,35.10
2022-10-06T13:07:55.856Z,33.78
2022-10-06T13:10:23.414Z,35.53
2022-10-06T13:12:52.102Z,30.92
2022-10-06T13:15:27.739Z,33.72
2022-10-06T13:17:56.108Z,34.13
2022-10-06T13:20:46.281Z,29.27
2022-10-06T13:23:37.150Z,31.53
2022-10-06T13:28:47.297Z,32.17
2022-10-06T13:31:29.259Z,29.10
2022-10-06T13:34:05.167Z,32.08
2022-10-06T13:36:38.538Z,33.22
2022-10-06T13:39:06.416Z,31.35
2022-10-06T13:41:41.461Z,31.02
2022-10-06T13:44:18.709Z,31.80
2022-10-06T13:47:01.679Z,30.73
2022-10-06T13:49:43.058Z,30.02
2022-10-06T13:52:48.860Z,32.33
2022-10-06T13:55:25.030Z,31.88
2022-10-06T13:58:09.241Z,29.67
2022-10-06T14:01:00.462Z,26.90
2022-10-06T14:06:16.883Z,30.45
2022-10-06T14:08:50.767Z,27.88
2022-10-06T14:11:24.550Z,30.90
2022-10-06T14:14:03.197Z,31.17
2022-10-06T14:16:30.104Z,30.27
2022-10-06T14:19:00.544Z,32.55
2022-10-06T14:21:36.795Z,33.17
2022-10-06T14:24:23.251Z,29.55
2022-10-06T14:26:50.547Z,30.38
2022-10-06T14:29:18.337Z,34.25
2022-10-06T14:31:45.417Z,32.08
2022-10-06T14:34:16.829Z,31.15
2022-10-06T14:36:45.616Z,30.92
2022-10-06T14:39:14.824Z,32.40
2022-10-06T14:41:41.421Z,30.05
2022-10-06T14:44:12.432Z,29.90
2022-10-06T14:46:41.404Z,30.67
2022-10-06T14:49:10.284Z,31.73
2022-10-06T14:51:38.785Z,33.55
2022-10-06T14:54:07.296Z,33.55
2022-10-06T14:56:37.646Z,34.65
2022-10-06T14:59:06.496Z,32.45
2022-10-06T15:01:34.949Z,34.17
2022-10-06T15:04:05.088Z,30.58
2022-10-06T15:06:50.548Z,32.72
2022-10-06T15:09:17.136Z,32.30
2022-10-06T15:11:43.607Z,33.10
2022-10-06T15:14:10.034Z,31.35
2022-10-06T15:16:40.598Z,32.60
2022-10-06T15:19:07.375Z,32.30
2022-10-06T15:21:34.181Z,30.98
2022-10-06T15:24:04.463Z,32.90
2022-10-06T15:26:50.177Z,30.58
2022-10-06T15:29:16.995Z,31.23
2022-10-06T15:31:45.896Z,30.52
2022-10-06T15:34:14.048Z,29.23
2022-10-06T15:36:42.414Z,30.15
2022-10-06T15:39:11.166Z,30.27
2022-10-06T15:41:39.352Z,31.30
2022-10-06T15:44:07.310Z,30.77
2022-10-06T15:46:37.107Z,29.60
2022-10-06T15:49:05.265Z,29.10
2022-10-06T15:51:36.457Z,32.85
2022-10-06T15:54:02.904Z,33.70
2022-10-06T15:56:31.716Z,35.17
2022-10-06T15:58:59.257Z,36.45
2022-10-06T16:01:28.419Z,34.75
2022-10-06T16:03:54.992Z,34.40
2022-10-06T16:06:30.195Z,35.75
2022-10-06T16:08:56.598Z,37.33
2022-10-06T16:11:23.049Z,35.35
2022-10-06T16:13:49.527Z,38.30
2022-10-06T16:16:15.980Z,34.58
2022-10-06T16:18:42.433Z,36.55
2022-10-06T16:21:08.841Z,32.88
2022-10-06T16:23:35.213Z,35.60
2022-10-06T16:26:02.234Z,38.13
2022-10-06T16:28:28.668Z,36.00
2022-10-06T16:30:55.423Z,35.90
2022-10-06T16:33:21.866Z,33.63
2022-10-06T16:35:55.880Z,35.88
2022-10-06T16:38:23.072Z,35.33
2022-10-06T16:41:03.286Z,38.13
2022-10-06T16:43:31.941Z,37.03
2022-10-06T16:46:02.301Z,33.05
2022-10-06T16:48:34.761Z,38.50
2022-10-06T16:51:34.623Z,37.85
2022-10-06T16:54:03.441Z,41.92
2022-10-06T16:56:42.050Z,41.97
2022-10-06T16:59:19.038Z,41.80
2022-10-06T17:01:46.264Z,38.70
2022-10-06T17:04:15.450Z,41.83
2022-10-06T17:06:45.194Z,43.58
2022-10-06T17:09:14.339Z,45.78
2022-10-06T17:11:48.462Z,45.03
2022-10-06T17:14:15.731Z,41.13
2022-10-06T17:16:43.934Z,42.65
2022-10-06T17:19:15.481Z,43.42
2022-10-06T17:21:48.101Z,43.33
2022-10-06T17:24:20.022Z,41.85
2022-10-06T17:26:48.478Z,44.90
2022-10-06T17:29:21.223Z,44.88
2022-10-06T17:31:49.273Z,43.97
2022-10-06T17:34:20.862Z,46.35
2022-10-06T17:36:50.850Z,40.75
2022-10-06T17:39:22.545Z,42.30
2022-10-06T17:41:51.791Z,44.72
2022-10-06T17:44:23.525Z,41.45
2022-10-06T17:46:52.815Z,45.17
2022-10-06T17:49:21.234Z,44.90
2022-10-06T17:51:49.107Z,47.47
2022-10-06T17:54:19.140Z,45.35
2022-10-06T17:56:47.896Z,50.22
2022-10-06T17:59:36.048Z,44.83
2022-10-06T18:02:03.598Z,45.28
2022-10-06T18:04:31.483Z,43.60
2022-10-06T18:06:58.091Z,45.35
2022-10-06T18:09:25.189Z,47.45
2022-10-06T18:11:56.413Z,50.20
2022-10-06T18:14:26.245Z,46.70
2022-10-06T18:16:58.386Z,49.08
2022-10-06T18:19:30.707Z,49.08
2022-10-06T18:22:12.746Z,47.30
2022-10-06T18:24:40.072Z,46.63
2022-10-06T18:27:07.824Z,47.67
2022-10-06T18:29:38.027Z,46.65
2022-10-06T18:37:38.998Z,49.30
2022-10-06T18:40:08.518Z,47.40
2022-10-06T18:42:34.997Z,52.13
2022-10-06T18:45:19.762Z,50.90
2022-10-06T18:48:04.494Z,47.95
2022-10-06T18:50:32.116Z,48.08
2022-10-06T18:52:58.518Z,44.67
2022-10-06T18:55:26.343Z,46.38
2022-10-06T18:57:52.832Z,48.50
2022-10-06T19:00:19.212Z,44.53
2022-10-06T19:02:48.433Z,49.33
2022-10-06T19:05:16.013Z,49.08
2022-10-06T19:07:43.378Z,51.95
2022-10-06T19:10:10.276Z,49.35
2022-10-06T19:12:36.670Z,54.20
2022-10-06T19:15:03.417Z,50.78
2022-10-06T19:17:29.845Z,51.00
2022-10-06T19:19:56.982Z,47.05
2022-10-06T19:22:25.013Z,53.38
2022-10-06T19:24:52.162Z,50.28
2022-10-06T19:27:23.841Z,53.60
2022-10-06T19:29:54.259Z,48.90
2022-10-06T19:32:32.130Z,52.60
2022-10-06T19:34:59.176Z,50.90
2022-10-06T19:37:28.319Z,51.13
2022-10-06T19:39:54.722Z,53.08
2022-10-06T19:42:39.768Z,54.35
2022-10-06T19:45:07.805Z,55.67
2022-10-06T19:47:34.217Z,56.08
2022-10-06T19:50:04.702Z,49.95
2022-10-06T19:52:34.149Z,53.13
2022-10-06T19:55:00.766Z,54.60
2022-10-06T19:57:29.093Z,54.03
2022-10-06T19:59:55.555Z,52.83
2022-10-06T20:02:22.263Z,51.78
2022-10-06T20:04:48.759Z,57.58
2022-10-06T20:07:15.190Z,52.13
2022-10-06T20:09:41.697Z,54.33
2022-10-06T20:12:08.117Z,55.60
2022-10-06T20:14:34.631Z,53.25
2022-10-06T20:17:02.639Z,53.85
2022-10-06T20:19:29.171Z,49.30
2022-10-06T20:21:55.631Z,47.92
2022-10-06T20:24:24.581Z,53.58
2022-10-06T20:26:52.755Z,52.80
2022-10-06T20:29:25.282Z,52.83
2022-10-06T20:31:56.282Z,50.47
2022-10-06T20:36:55.732Z,52.45
2022-10-06T20:39:42.174Z,53.13
2022-10-06T20:42:13.963Z,52.22
2022-10-06T20:44:42.215Z,53.60
2022-10-06T20:47:10.246Z,52.67
2022-10-06T20:49:37.114Z,52.45
2022-10-06T20:52:04.712Z,52.80
2022-10-06T20:54:34.712Z,51.67
2022-10-06T20:57:03.825Z,50.80
2022-10-06T20:59:31.310Z,50.47
2022-10-06T21:01:59.876Z,52.28
2022-10-06T21:04:29.907Z,52.85
2022-10-06T21:06:56.991Z,50.58
2022-10-06T21:09:24.350Z,49.00
2022-10-06T21:11:51.239Z,53.30
2022-10-06T21:14:18.164Z,53.75
2022-10-06T21:16:47.480Z,54.50
2022-10-06T21:19:16.668Z,56.90
2022-10-06T21:21:45.815Z,54.67
2022-10-06T21:24:12.266Z,51.88
2022-10-06T21:26:39.064Z,58.58
2022-10-06T21:29:05.669Z,55.53
2022-10-06T21:31:33.038Z,54.88
2022-10-06T21:34:01.189Z,53.83
2022-10-06T21:36:30.930Z,53.28
2022-10-06T21:38:59.096Z,57.97
2022-10-06T21:41:31.810Z,55.00
2022-10-06T21:44:00.154Z,62.17
2022-10-06T21:46:29.437Z,58.90
2022-10-06T21:48:57.930Z,55.05
2022-10-06T21:51:26.595Z,57.03
2022-10-06T21:53:54.223Z,59.15
2022-10-06T21:56:22.037Z,58.67
2022-10-06T21:58:52.985Z,54.92
2022-10-06T22:01:21.789Z,60.85
2022-10-06T22:03:48.785Z,56.92
2022-10-06T22:06:19.306Z,56.05
2022-10-06T22:11:19.023Z,59.58
2022-10-06T22:13:47.937Z,57.47
2022-10-06T22:16:21.486Z,55.92
2022-10-06T22:18:48.624Z,57.65
2022-10-06T22:21:21.407Z,60.13
2022-10-06T22:23:54.315Z,55.85
2022-10-06T22:26:20.806Z,55.67
2022-10-06T22:28:49.187Z,57.53
2022-10-06T22:31:17.397Z,62.22
2022-10-06T22:33:49.635Z,54.55
2022-10-06T22:36:16.042Z,55.58
2022-10-06T22:38:42.441Z,57.83
2022-10-06T22:41:11.203Z,56.95
2022-10-06T22:43:38.462Z,55.08
2022-10-06T22:46:06.644Z,53.58
2022-10-06T22:48:33.299Z,55.97
2022-10-06T22:51:00.048Z,53.05
2022-10-06T22:53:29.999Z,56.83
2022-10-06T22:55:56.834Z,54.65
2022-10-06T22:58:23.566Z,55.13
2022-10-06T23:00:50.293Z,54.30
2022-10-06T23:03:18.329Z,56.53
2022-10-06T23:05:59.323Z,56.25
2022-10-06T23:08:30.164Z,57.03
2022-10-06T23:11:11.615Z,55.25
2022-10-06T23:13:38.075Z,53.25
2022-10-06T23:16:07.986Z,57.65
2022-10-06T23:18:37.273Z,58.97
2022-10-06T23:21:18.990Z,54.40
2022-10-06T23:23:46.180Z,54.40
2022-10-06T23:26:14.619Z,50.67
2022-10-06T23:28:41.995Z,53.85
2022-10-06T23:31:10.679Z,54.65
2022-10-06T23:33:37.223Z,53.50
2022-10-06T23:36:06.547Z,56.78
2022-10-06T23:38:34.289Z,53.33
2022-10-06T23:41:00.869Z,51.42
2022-10-06T23:43:27.367Z,55.72
2022-10-06T23:45:53.951Z,53.22
2022-10-06T23:48:20.428Z,54.33
2022-10-06T23:51:01.036Z,54.33
2022-10-06T23:53:28.274Z,55.88
2022-10-06T23:55:54.798Z,54.08
2022-10-06T23:58:22.498Z,53.10
